sensor_id;sensor_type;location;lat;lon;timestamp;P1;durP1;ratioP1;P2;durP2;ratioP2
23617;SDS011;18207;32.078;34.818;2024-02-15T00:00:16;2.25;;;1.30;;
23617;SDS011;18207;32.078;34.818;2024-02-15T00:02:46;1.73;;;1.48;;
23617;SDS011;18207;32.078;34.818;2024-02-15T00:05:16;2.05;;;1.10;;
23617;SDS011;18207;32.078;34.818;2024-02-15T00:07:46;1.48;;;1.38;;
23617;SDS011;18207;32.078;34.818;2024-02-15T00:10:16;1.30;;;1.23;;
23617;SDS011;18207;32.078;34.818;2024-02-15T00:12:46;1.40;;;1.30;;
23617;SDS011;18207;32.078;34.818;2024-02-15T00:15:19;1.50;;;1.40;;
23617;SDS011;18207;32.078;34.818;2024-02-15T00:17:49;1.90;;;1.40;;
23617;SDS011;18207;32.078;34.818;2024-02-15T00:20:18;1.15;;;1.10;;
23617;SDS011;18207;32.078;34.818;2024-02-15T00:22:48;1.50;;;1.27;;
23617;SDS011;18207;32.078;34.818;2024-02-15T00:25:19;1.48;;;1.30;;
23617;SDS011;18207;32.078;34.818;2024-02-15T00:27:48;1.40;;;1.30;;
23617;SDS011;18207;32.078;34.818;2024-02-15T00:30:20;1.45;;;1.35;;
23617;SDS011;18207;32.078;34.818;2024-02-15T00:32:50;1.80;;;1.38;;
23617;SDS011;18207;32.078;34.818;2024-02-15T00:35:20;1.05;;;1.05;;
23617;SDS011;18207;32.078;34.818;2024-02-15T00:37:49;1.60;;;1.50;;
23617;SDS011;18207;32.078;34.818;2024-02-15T00:40:18;1.13;;;1.02;;
23617;SDS011;18207;32.078;34.818;2024-02-15T00:42:49;1.42;;;1.30;;
23617;SDS011;18207;32.078;34.818;2024-02-15T00:45:21;1.35;;;1.25;;
23617;SDS011;18207;32.078;34.818;2024-02-15T00:47:50;1.50;;;1.40;;
23617;SDS011;18207;32.078;34.818;2024-02-15T00:50:21;1.38;;;1.27;;
23617;SDS011;18207;32.078;34.818;2024-02-15T00:52:51;2.13;;;1.50;;
23617;SDS011;18207;32.078;34.818;2024-02-15T00:55:20;1.00;;;0.98;;
23617;SDS011;18207;32.078;34.818;2024-02-15T00:57:50;1.50;;;1.23;;
23617;SDS011;18207;32.078;34.818;2024-02-15T01:00:22;1.85;;;1.38;;
23617;SDS011;18207;32.078;34.818;2024-02-15T01:02:52;2.25;;;1.50;;
23617;SDS011;18207;32.078;34.818;2024-02-15T01:05:22;1.60;;;1.30;;
23617;SDS011;18207;32.078;34.818;2024-02-15T01:07:52;1.85;;;1.38;;
23617;SDS011;18207;32.078;34.818;2024-02-15T01:10:22;1.45;;;1.35;;
23617;SDS011;18207;32.078;34.818;2024-02-15T01:12:53;1.35;;;1.30;;
23617;SDS011;18207;32.078;34.818;2024-02-15T01:15:25;1.52;;;1.40;;
23617;SDS011;18207;32.078;34.818;2024-02-15T01:17:57;1.50;;;1.40;;
23617;SDS011;18207;32.078;34.818;2024-02-15T01:20:27;1.40;;;1.23;;
23617;SDS011;18207;32.078;34.818;2024-02-15T01:23:10;1.05;;;1.05;;
23617;SDS011;18207;32.078;34.818;2024-02-15T01:25:39;1.38;;;1.27;;
23617;SDS011;18207;32.078;34.818;2024-02-15T01:28:09;1.35;;;1.25;;
23617;SDS011;18207;32.078;34.818;2024-02-15T01:30:40;1.33;;;1.23;;
23617;SDS011;18207;32.078;34.818;2024-02-15T01:33:10;1.48;;;1.38;;
23617;SDS011;18207;32.078;34.818;2024-02-15T01:35:40;1.35;;;1.27;;
23617;SDS011;18207;32.078;34.818;2024-02-15T01:38:10;1.40;;;1.30;;
23617;SDS011;18207;32.078;34.818;2024-02-15T01:40:39;1.10;;;1.10;;
23617;SDS011;18207;32.078;34.818;2024-02-15T01:43:09;1.23;;;1.13;;
23617;SDS011;18207;32.078;34.818;2024-02-15T01:45:40;1.40;;;1.25;;
23617;SDS011;18207;32.078;34.818;2024-02-15T01:48:10;1.33;;;1.23;;
23617;SDS011;18207;32.078;34.818;2024-02-15T01:50:40;1.40;;;1.30;;
23617;SDS011;18207;32.078;34.818;2024-02-15T01:53:10;1.45;;;1.35;;
23617;SDS011;18207;32.078;34.818;2024-02-15T01:55:40;1.25;;;1.15;;
23617;SDS011;18207;32.078;34.818;2024-02-15T01:58:10;1.38;;;1.27;;
23617;SDS011;18207;32.078;34.818;2024-02-15T02:00:42;1.60;;;1.40;;
23617;SDS011;18207;32.078;34.818;2024-02-15T02:03:11;1.30;;;1.08;;
23617;SDS011;18207;32.078;34.818;2024-02-15T02:05:43;1.48;;;1.17;;
23617;SDS011;18207;32.078;34.818;2024-02-15T02:08:13;1.10;;;1.10;;
23617;SDS011;18207;32.078;34.818;2024-02-15T02:10:43;1.55;;;1.30;;
23617;SDS011;18207;32.078;34.818;2024-02-15T02:13:13;1.33;;;1.00;;
23617;SDS011;18207;32.078;34.818;2024-02-15T02:15:46;1.08;;;1.05;;
23617;SDS011;18207;32.078;34.818;2024-02-15T02:18:15;1.40;;;1.20;;
23617;SDS011;18207;32.078;34.818;2024-02-15T02:20:45;1.50;;;1.40;;
23617;SDS011;18207;32.078;34.818;2024-02-15T02:23:15;1.40;;;1.30;;
23617;SDS011;18207;32.078;34.818;2024-02-15T02:25:51;1.30;;;1.20;;
23617;SDS011;18207;32.078;34.818;2024-02-15T02:28:33;1.40;;;1.13;;
23617;SDS011;18207;32.078;34.818;2024-02-15T02:31:03;1.20;;;1.10;;
23617;SDS011;18207;32.078;34.818;2024-02-15T02:33:33;1.58;;;1.10;;
23617;SDS011;18207;32.078;34.818;2024-02-15T02:36:03;1.17;;;1.00;;
23617;SDS011;18207;32.078;34.818;2024-02-15T02:38:36;1.75;;;1.30;;
23617;SDS011;18207;32.078;34.818;2024-02-15T02:41:08;1.83;;;1.15;;
23617;SDS011;18207;32.078;34.818;2024-02-15T02:43:38;1.20;;;1.10;;
23617;SDS011;18207;32.078;34.818;2024-02-15T02:46:09;0.88;;;0.88;;
23617;SDS011;18207;32.078;34.818;2024-02-15T02:48:40;1.08;;;1.08;;
23617;SDS011;18207;32.078;34.818;2024-02-15T02:51:10;0.70;;;0.70;;
23617;SDS011;18207;32.078;34.818;2024-02-15T02:53:40;1.20;;;1.10;;
23617;SDS011;18207;32.078;34.818;2024-02-15T02:56:11;0.70;;;0.70;;
23617;SDS011;18207;32.078;34.818;2024-02-15T02:58:41;1.27;;;1.10;;
23617;SDS011;18207;32.078;34.818;2024-02-15T03:01:10;0.70;;;0.70;;
23617;SDS011;18207;32.078;34.818;2024-02-15T03:03:40;0.75;;;0.75;;
23617;SDS011;18207;32.078;34.818;2024-02-15T03:06:10;0.77;;;0.68;;
23617;SDS011;18207;32.078;34.818;2024-02-15T03:08:41;0.80;;;0.80;;
23617;SDS011;18207;32.078;34.818;2024-02-15T03:11:13;0.88;;;0.85;;
23617;SDS011;18207;32.078;34.818;2024-02-15T03:13:43;0.70;;;0.70;;
23617;SDS011;18207;32.078;34.818;2024-02-15T03:16:12;0.70;;;0.70;;
23617;SDS011;18207;32.078;34.818;2024-02-15T03:18:43;0.70;;;0.70;;
23617;SDS011;18207;32.078;34.818;2024-02-15T03:21:13;0.80;;;0.80;;
23617;SDS011;18207;32.078;34.818;2024-02-15T03:23:42;1.05;;;0.85;;
23617;SDS011;18207;32.078;34.818;2024-02-15T03:26:14;0.90;;;0.90;;
23617;SDS011;18207;32.078;34.818;2024-02-15T03:28:43;1.30;;;0.73;;
23617;SDS011;18207;32.078;34.818;2024-02-15T03:31:13;0.60;;;0.60;;
23617;SDS011;18207;32.078;34.818;2024-02-15T03:33:44;1.67;;;0.98;;
23617;SDS011;18207;32.078;34.818;2024-02-15T03:36:17;0.88;;;0.77;;
23617;SDS011;18207;32.078;34.818;2024-02-15T03:38:47;0.63;;;0.63;;
23617;SDS011;18207;32.078;34.818;2024-02-15T03:41:18;0.60;;;0.60;;
23617;SDS011;18207;32.078;34.818;2024-02-15T03:43:48;0.60;;;0.60;;
23617;SDS011;18207;32.078;34.818;2024-02-15T03:46:18;1.17;;;0.80;;
23617;SDS011;18207;32.078;34.818;2024-02-15T03:48:49;0.80;;;0.80;;
23617;SDS011;18207;32.078;34.818;2024-02-15T03:51:19;1.00;;;0.90;;
23617;SDS011;18207;32.078;34.818;2024-02-15T03:53:51;1.08;;;0.75;;
23617;SDS011;18207;32.078;34.818;2024-02-15T03:56:22;0.70;;;0.70;;
23617;SDS011;18207;32.078;34.818;2024-02-15T03:58:52;0.80;;;0.80;;
23617;SDS011;18207;32.078;34.818;2024-02-15T04:01:21;0.60;;;0.60;;
23617;SDS011;18207;32.078;34.818;2024-02-15T04:03:51;1.02;;;0.80;;
23617;SDS011;18207;32.078;34.818;2024-02-15T04:06:22;0.70;;;0.70;;
23617;SDS011;18207;32.078;34.818;2024-02-15T04:08:52;0.82;;;0.65;;
23617;SDS011;18207;32.078;34.818;2024-02-15T04:11:23;0.63;;;0.63;;
23617;SDS011;18207;32.078;34.818;2024-02-15T04:13:52;0.90;;;0.90;;
23617;SDS011;18207;32.078;34.818;2024-02-15T04:16:24;0.95;;;0.77;;
23617;SDS011;18207;32.078;34.818;2024-02-15T04:18:55;1.17;;;1.00;;
23617;SDS011;18207;32.078;34.818;2024-02-15T04:21:25;0.90;;;0.90;;
23617;SDS011;18207;32.078;34.818;2024-02-15T04:23:55;1.92;;;1.10;;
23617;SDS011;18207;32.078;34.818;2024-02-15T04:26:27;0.88;;;0.80;;
23617;SDS011;18207;32.078;34.818;2024-02-15T04:28:58;1.20;;;1.10;;
23617;SDS011;18207;32.078;34.818;2024-02-15T04:31:29;1.42;;;1.20;;
23617;SDS011;18207;32.078;34.818;2024-02-15T04:34:03;1.30;;;1.20;;
23617;SDS011;18207;32.078;34.818;2024-02-15T04:36:34;1.55;;;1.13;;
23617;SDS011;18207;32.078;34.818;2024-02-15T04:39:07;1.30;;;1.20;;
23617;SDS011;18207;32.078;34.818;2024-02-15T04:41:43;1.30;;;1.20;;
23617;SDS011;18207;32.078;34.818;2024-02-15T04:44:13;1.30;;;1.20;;
23617;SDS011;18207;32.078;34.818;2024-02-15T04:46:43;1.65;;;1.50;;
23617;SDS011;18207;32.078;34.818;2024-02-15T04:49:13;1.60;;;1.50;;
23617;SDS011;18207;32.078;34.818;2024-02-15T04:51:43;1.58;;;1.48;;
23617;SDS011;18207;32.078;34.818;2024-02-15T04:54:14;1.75;;;1.65;;
23617;SDS011;18207;32.078;34.818;2024-02-15T04:56:47;1.60;;;1.50;;
23617;SDS011;18207;32.078;34.818;2024-02-15T04:59:19;1.83;;;1.73;;
23617;SDS011;18207;32.078;34.818;2024-02-15T05:04:38;2.38;;;1.83;;
23617;SDS011;18207;32.078;34.818;2024-02-15T05:07:09;2.05;;;1.85;;
23617;SDS011;18207;32.078;34.818;2024-02-15T05:09:42;2.10;;;1.90;;
23617;SDS011;18207;32.078;34.818;2024-02-15T05:12:21;1.95;;;1.80;;
23617;SDS011;18207;32.078;34.818;2024-02-15T05:14:51;1.92;;;1.80;;
23617;SDS011;18207;32.078;34.818;2024-02-15T05:17:21;2.60;;;1.90;;
23617;SDS011;18207;32.078;34.818;2024-02-15T05:19:51;2.25;;;2.05;;
23617;SDS011;18207;32.078;34.818;2024-02-15T05:22:21;2.30;;;1.83;;
23617;SDS011;18207;32.078;34.818;2024-02-15T05:24:50;2.15;;;1.60;;
23617;SDS011;18207;32.078;34.818;2024-02-15T05:27:25;1.80;;;1.60;;
23617;SDS011;18207;32.078;34.818;2024-02-15T05:29:55;1.90;;;1.77;;
23617;SDS011;18207;32.078;34.818;2024-02-15T05:32:24;1.73;;;1.52;;
23617;SDS011;18207;32.078;34.818;2024-02-15T05:34:54;1.67;;;1.58;;
23617;SDS011;18207;32.078;34.818;2024-02-15T05:37:23;1.90;;;1.55;;
23617;SDS011;18207;32.078;34.818;2024-02-15T05:39:53;1.50;;;1.40;;
23617;SDS011;18207;32.078;34.818;2024-02-15T05:42:25;1.83;;;1.65;;
23617;SDS011;18207;32.078;34.818;2024-02-15T05:44:55;2.17;;;1.60;;
23617;SDS011;18207;32.078;34.818;2024-02-15T05:48:00;1.75;;;1.40;;
23617;SDS011;18207;32.078;34.818;2024-02-15T05:50:34;1.85;;;1.52;;
23617;SDS011;18207;32.078;34.818;2024-02-15T05:53:05;1.80;;;1.52;;
23617;SDS011;18207;32.078;34.818;2024-02-15T05:55:36;2.03;;;1.45;;
23617;SDS011;18207;32.078;34.818;2024-02-15T05:58:10;1.80;;;1.60;;
23617;SDS011;18207;32.078;34.818;2024-02-15T06:00:40;1.73;;;1.35;;
23617;SDS011;18207;32.078;34.818;2024-02-15T06:03:11;2.55;;;1.70;;
23617;SDS011;18207;32.078;34.818;2024-02-15T06:05:49;1.48;;;1.38;;
23617;SDS011;18207;32.078;34.818;2024-02-15T06:08:27;2.13;;;1.30;;
23617;SDS011;18207;32.078;34.818;2024-02-15T06:10:57;2.65;;;1.13;;
23617;SDS011;18207;32.078;34.818;2024-02-15T06:13:30;1.63;;;1.38;;
23617;SDS011;18207;32.078;34.818;2024-02-15T06:16:01;1.83;;;1.30;;
23617;SDS011;18207;32.078;34.818;2024-02-15T06:18:36;1.25;;;1.10;;
23617;SDS011;18207;32.078;34.818;2024-02-15T06:21:05;2.33;;;1.00;;
23617;SDS011;18207;32.078;34.818;2024-02-15T06:23:35;1.30;;;1.20;;
23617;SDS011;18207;32.078;34.818;2024-02-15T06:26:05;1.33;;;1.23;;
23617;SDS011;18207;32.078;34.818;2024-02-15T06:28:37;1.23;;;1.13;;
23617;SDS011;18207;32.078;34.818;2024-02-15T06:31:23;1.38;;;1.13;;
23617;SDS011;18207;32.078;34.818;2024-02-15T06:34:10;1.42;;;1.17;;
23617;SDS011;18207;32.078;34.818;2024-02-15T06:36:57;1.52;;;1.23;;
23617;SDS011;18207;32.078;34.818;2024-02-15T06:39:45;1.80;;;1.23;;
23617;SDS011;18207;32.078;34.818;2024-02-15T06:42:15;1.35;;;1.25;;
23617;SDS011;18207;32.078;34.818;2024-02-15T06:44:48;1.30;;;1.05;;
23617;SDS011;18207;32.078;34.818;2024-02-15T06:47:18;7.32;;;1.60;;
23617;SDS011;18207;32.078;34.818;2024-02-15T06:49:48;1.15;;;1.05;;
23617;SDS011;18207;32.078;34.818;2024-02-15T06:52:20;1.20;;;1.10;;
23617;SDS011;18207;32.078;34.818;2024-02-15T06:54:50;2.10;;;1.17;;
23617;SDS011;18207;32.078;34.818;2024-02-15T06:57:20;0.68;;;0.68;;
23617;SDS011;18207;32.078;34.818;2024-02-15T06:59:52;1.20;;;1.10;;
23617;SDS011;18207;32.078;34.818;2024-02-15T07:02:21;1.63;;;1.15;;
23617;SDS011;18207;32.078;34.818;2024-02-15T07:04:51;1.02;;;0.90;;
23617;SDS011;18207;32.078;34.818;2024-02-15T07:07:21;0.65;;;0.65;;
23617;SDS011;18207;32.078;34.818;2024-02-15T07:09:59;1.02;;;0.93;;
23617;SDS011;18207;32.078;34.818;2024-02-15T07:12:30;1.85;;;0.95;;
23617;SDS011;18207;32.078;34.818;2024-02-15T07:15:02;1.73;;;1.10;;
23617;SDS011;18207;32.078;34.818;2024-02-15T07:17:36;1.00;;;0.88;;
23617;SDS011;18207;32.078;34.818;2024-02-15T07:20:07;1.00;;;1.00;;
23617;SDS011;18207;32.078;34.818;2024-02-15T07:22:40;1.13;;;1.02;;
23617;SDS011;18207;32.078;34.818;2024-02-15T07:25:11;1.20;;;1.10;;
23617;SDS011;18207;32.078;34.818;2024-02-15T07:27:41;1.98;;;1.02;;
23617;SDS011;18207;32.078;34.818;2024-02-15T07:30:13;1.55;;;1.10;;
23617;SDS011;18207;32.078;34.818;2024-02-15T07:32:44;0.95;;;0.93;;
23617;SDS011;18207;32.078;34.818;2024-02-15T07:35:14;1.20;;;1.10;;
23617;SDS011;18207;32.078;34.818;2024-02-15T07:37:54;1.55;;;1.30;;
23617;SDS011;18207;32.078;34.818;2024-02-15T07:40:25;1.50;;;1.15;;
23617;SDS011;18207;32.078;34.818;2024-02-15T07:43:04;1.83;;;1.17;;
23617;SDS011;18207;32.078;34.818;2024-02-15T07:45:39;2.38;;;1.30;;
23617;SDS011;18207;32.078;34.818;2024-02-15T07:48:09;1.58;;;1.30;;
23617;SDS011;18207;32.078;34.818;2024-02-15T07:50:38;1.42;;;1.25;;
23617;SDS011;18207;32.078;34.818;2024-02-15T07:53:10;1.30;;;1.20;;
23617;SDS011;18207;32.078;34.818;2024-02-15T07:55:40;1.15;;;1.00;;
23617;SDS011;18207;32.078;34.818;2024-02-15T07:58:11;1.50;;;1.17;;
23617;SDS011;18207;32.078;34.818;2024-02-15T08:00:42;1.67;;;1.10;;
23617;SDS011;18207;32.078;34.818;2024-02-15T08:03:13;1.10;;;1.00;;
23617;SDS011;18207;32.078;34.818;2024-02-15T08:05:43;1.38;;;1.02;;
23617;SDS011;18207;32.078;34.818;2024-02-15T08:08:14;1.23;;;1.13;;
23617;SDS011;18207;32.078;34.818;2024-02-15T08:10:47;1.83;;;0.98;;
23617;SDS011;18207;32.078;34.818;2024-02-15T08:13:18;1.02;;;0.85;;
23617;SDS011;18207;32.078;34.818;2024-02-15T08:15:55;1.15;;;1.05;;
23617;SDS011;18207;32.078;34.818;2024-02-15T08:18:25;1.15;;;0.88;;
23617;SDS011;18207;32.078;34.818;2024-02-15T08:20:55;0.90;;;0.73;;
23617;SDS011;18207;32.078;34.818;2024-02-15T08:23:26;2.20;;;0.80;;
23617;SDS011;18207;32.078;34.818;2024-02-15T08:25:56;1.42;;;0.98;;
23617;SDS011;18207;32.078;34.818;2024-02-15T08:28:26;0.50;;;0.50;;
23617;SDS011;18207;32.078;34.818;2024-02-15T08:30:57;1.17;;;0.68;;
23617;SDS011;18207;32.078;34.818;2024-02-15T08:33:27;0.70;;;0.70;;
23617;SDS011;18207;32.078;34.818;2024-02-15T08:35:57;1.25;;;0.90;;
23617;SDS011;18207;32.078;34.818;2024-02-15T08:38:29;0.70;;;0.70;;
23617;SDS011;18207;32.078;34.818;2024-02-15T08:40:59;1.45;;;0.70;;
23617;SDS011;18207;32.078;34.818;2024-02-15T08:43:29;0.45;;;0.45;;
23617;SDS011;18207;32.078;34.818;2024-02-15T08:46:01;1.10;;;0.90;;
23617;SDS011;18207;32.078;34.818;2024-02-15T08:48:32;0.90;;;0.70;;
23617;SDS011;18207;32.078;34.818;2024-02-15T08:51:04;0.73;;;0.73;;
23617;SDS011;18207;32.078;34.818;2024-02-15T08:53:36;0.55;;;0.43;;
23617;SDS011;18207;32.078;34.818;2024-02-15T08:56:05;0.65;;;0.52;;
23617;SDS011;18207;32.078;34.818;2024-02-15T08:58:37;1.13;;;0.63;;
23617;SDS011;18207;32.078;34.818;2024-02-15T09:01:09;1.38;;;0.68;;
23617;SDS011;18207;32.078;34.818;2024-02-15T09:03:40;0.75;;;0.43;;
23617;SDS011;18207;32.078;34.818;2024-02-15T09:06:12;0.63;;;0.60;;
23617;SDS011;18207;32.078;34.818;2024-02-15T09:08:42;1.17;;;0.60;;
23617;SDS011;18207;32.078;34.818;2024-02-15T09:11:12;0.65;;;0.60;;
23617;SDS011;18207;32.078;34.818;2024-02-15T09:13:42;0.90;;;0.45;;
23617;SDS011;18207;32.078;34.818;2024-02-15T09:16:13;1.33;;;0.70;;
23617;SDS011;18207;32.078;34.818;2024-02-15T09:18:43;0.60;;;0.40;;
23617;SDS011;18207;32.078;34.818;2024-02-15T09:21:13;0.57;;;0.32;;
23617;SDS011;18207;32.078;34.818;2024-02-15T09:23:43;1.33;;;0.70;;
23617;SDS011;18207;32.078;34.818;2024-02-15T09:26:12;1.40;;;0.60;;
23617;SDS011;18207;32.078;34.818;2024-02-15T09:28:42;0.88;;;0.50;;
23617;SDS011;18207;32.078;34.818;2024-02-15T09:31:13;0.30;;;0.30;;
23617;SDS011;18207;32.078;34.818;2024-02-15T09:33:43;0.57;;;0.57;;
23617;SDS011;18207;32.078;34.818;2024-02-15T09:36:13;0.30;;;0.20;;
23617;SDS011;18207;32.078;34.818;2024-02-15T09:38:43;1.42;;;0.77;;
23617;SDS011;18207;32.078;34.818;2024-02-15T09:41:14;0.90;;;0.60;;
23617;SDS011;18207;32.078;34.818;2024-02-15T09:43:43;0.60;;;0.50;;
23617;SDS011;18207;32.078;34.818;2024-02-15T09:46:20;0.50;;;0.50;;
23617;SDS011;18207;32.078;34.818;2024-02-15T09:48:50;0.52;;;0.50;;
23617;SDS011;18207;32.078;34.818;2024-02-15T09:51:25;1.08;;;0.68;;
23617;SDS011;18207;32.078;34.818;2024-02-15T09:53:58;0.60;;;0.50;;
23617;SDS011;18207;32.078;34.818;2024-02-15T09:56:30;1.52;;;0.70;;
23617;SDS011;18207;32.078;34.818;2024-02-15T09:59:02;0.50;;;0.47;;
23617;SDS011;18207;32.078;34.818;2024-02-15T10:01:34;0.57;;;0.57;;
23617;SDS011;18207;32.078;34.818;2024-02-15T10:04:07;1.15;;;0.47;;
23617;SDS011;18207;32.078;34.818;2024-02-15T10:06:42;0.90;;;0.63;;
23617;SDS011;18207;32.078;34.818;2024-02-15T10:09:24;1.05;;;0.82;;
23617;SDS011;18207;32.078;34.818;2024-02-15T10:11:56;0.88;;;0.88;;
23617;SDS011;18207;32.078;34.818;2024-02-15T10:14:44;1.70;;;1.20;;
23617;SDS011;18207;32.078;34.818;2024-02-15T10:17:22;2.03;;;1.00;;
23617;SDS011;18207;32.078;34.818;2024-02-15T10:20:02;0.80;;;0.77;;
23617;SDS011;18207;32.078;34.818;2024-02-15T10:22:33;1.80;;;0.80;;
23617;SDS011;18207;32.078;34.818;2024-02-15T10:25:12;1.55;;;0.80;;
23617;SDS011;18207;32.078;34.818;2024-02-15T10:27:43;0.73;;;0.47;;
23617;SDS011;18207;32.078;34.818;2024-02-15T10:30:14;0.85;;;0.40;;
23617;SDS011;18207;32.078;34.818;2024-02-15T10:32:48;1.25;;;0.43;;
23617;SDS011;18207;32.078;34.818;2024-02-15T10:35:21;0.77;;;0.50;;
23617;SDS011;18207;32.078;34.818;2024-02-15T10:37:51;1.13;;;0.50;;
23617;SDS011;18207;32.078;34.818;2024-02-15T10:40:33;1.02;;;0.35;;
23617;SDS011;18207;32.078;34.818;2024-02-15T10:43:03;1.58;;;0.40;;
23617;SDS011;18207;32.078;34.818;2024-02-15T10:45:34;0.82;;;0.40;;
23617;SDS011;18207;32.078;34.818;2024-02-15T10:48:09;1.02;;;0.65;;
23617;SDS011;18207;32.078;34.818;2024-02-15T10:50:40;0.98;;;0.50;;
23617;SDS011;18207;32.078;34.818;2024-02-15T10:53:16;0.93;;;0.47;;
23617;SDS011;18207;32.078;34.818;2024-02-15T10:55:57;0.38;;;0.38;;
23617;SDS011;18207;32.078;34.818;2024-02-15T10:58:43;0.93;;;0.45;;
23617;SDS011;18207;32.078;34.818;2024-02-15T11:01:19;0.40;;;0.32;;
23617;SDS011;18207;32.078;34.818;2024-02-15T11:03:56;0.60;;;0.40;;
23617;SDS011;18207;32.078;34.818;2024-02-15T11:06:33;0.52;;;0.40;;
23617;SDS011;18207;32.078;34.818;2024-02-15T11:09:09;0.38;;;0.30;;
23617;SDS011;18207;32.078;34.818;2024-02-15T11:11:40;1.88;;;0.50;;
23617;SDS011;18207;32.078;34.818;2024-02-15T11:14:22;0.45;;;0.43;;
23617;SDS011;18207;32.078;34.818;2024-02-15T11:16:56;0.55;;;0.25;;
23617;SDS011;18207;32.078;34.818;2024-02-15T11:22:20;0.40;;;0.28;;
23617;SDS011;18207;32.078;34.818;2024-02-15T11:24:50;0.30;;;0.30;;
23617;SDS011;18207;32.078;34.818;2024-02-15T11:27:24;0.32;;;0.30;;
23617;SDS011;18207;32.078;34.818;2024-02-15T11:29:55;0.77;;;0.47;;
23617;SDS011;18207;32.078;34.818;2024-02-15T11:32:34;0.45;;;0.20;;
23617;SDS011;18207;32.078;34.818;2024-02-15T11:35:09;0.88;;;0.30;;
23617;SDS011;18207;32.078;34.818;2024-02-15T11:37:57;0.52;;;0.30;;
23617;SDS011;18207;32.078;34.818;2024-02-15T11:43:45;0.82;;;0.40;;
23617;SDS011;18207;32.078;34.818;2024-02-15T11:46:26;1.05;;;0.30;;
23617;SDS011;18207;32.078;34.818;2024-02-15T11:49:01;1.63;;;0.60;;
23617;SDS011;18207;32.078;34.818;2024-02-15T11:51:41;0.80;;;0.40;;
23617;SDS011;18207;32.078;34.818;2024-02-15T11:54:11;0.82;;;0.50;;
23617;SDS011;18207;32.078;34.818;2024-02-15T11:56:51;0.90;;;0.40;;
23617;SDS011;18207;32.078;34.818;2024-02-15T11:59:41;1.10;;;0.50;;
23617;SDS011;18207;32.078;34.818;2024-02-15T12:02:20;1.17;;;0.40;;
23617;SDS011;18207;32.078;34.818;2024-02-15T12:05:07;0.90;;;0.30;;
23617;SDS011;18207;32.078;34.818;2024-02-15T12:07:58;0.60;;;0.30;;
23617;SDS011;18207;32.078;34.818;2024-02-15T12:10:56;0.88;;;0.43;;
23617;SDS011;18207;32.078;34.818;2024-02-15T12:13:55;1.65;;;0.60;;
23617;SDS011;18207;32.078;34.818;2024-02-15T12:16:42;1.27;;;0.60;;
23617;SDS011;18207;32.078;34.818;2024-02-15T12:19:29;0.85;;;0.38;;
23617;SDS011;18207;32.078;34.818;2024-02-15T12:21:59;2.05;;;0.40;;
23617;SDS011;18207;32.078;34.818;2024-02-15T12:24:33;0.63;;;0.40;;
23617;SDS011;18207;32.078;34.818;2024-02-15T12:27:03;0.60;;;0.60;;
23617;SDS011;18207;32.078;34.818;2024-02-15T12:29:33;1.15;;;0.52;;
23617;SDS011;18207;32.078;34.818;2024-02-15T12:32:04;0.40;;;0.38;;
23617;SDS011;18207;32.078;34.818;2024-02-15T12:34:36;0.50;;;0.50;;
23617;SDS011;18207;32.078;34.818;2024-02-15T12:37:11;0.55;;;0.30;;
23617;SDS011;18207;32.078;34.818;2024-02-15T12:42:42;0.65;;;0.30;;
23617;SDS011;18207;32.078;34.818;2024-02-15T12:45:15;0.75;;;0.40;;
23617;SDS011;18207;32.078;34.818;2024-02-15T12:47:51;1.02;;;0.38;;
23617;SDS011;18207;32.078;34.818;2024-02-15T12:50:28;0.75;;;0.20;;
23617;SDS011;18207;32.078;34.818;2024-02-15T12:52:58;0.60;;;0.20;;
23617;SDS011;18207;32.078;34.818;2024-02-15T12:55:32;0.20;;;0.10;;
23617;SDS011;18207;32.078;34.818;2024-02-15T12:58:04;0.55;;;0.30;;
23617;SDS011;18207;32.078;34.818;2024-02-15T13:00:40;1.23;;;0.57;;
23617;SDS011;18207;32.078;34.818;2024-02-15T13:03:12;1.75;;;0.55;;
23617;SDS011;18207;32.078;34.818;2024-02-15T13:05:44;0.43;;;0.20;;
23617;SDS011;18207;32.078;34.818;2024-02-15T13:08:15;0.20;;;0.20;;
23617;SDS011;18207;32.078;34.818;2024-02-15T13:10:47;0.28;;;0.25;;
23617;SDS011;18207;32.078;34.818;2024-02-15T13:13:18;0.20;;;0.20;;
23617;SDS011;18207;32.078;34.818;2024-02-15T13:15:55;0.45;;;0.25;;
23617;SDS011;18207;32.078;34.818;2024-02-15T13:18:25;0.47;;;0.38;;
23617;SDS011;18207;32.078;34.818;2024-02-15T13:20:55;0.70;;;0.40;;
23617;SDS011;18207;32.078;34.818;2024-02-15T13:23:28;0.98;;;0.57;;
23617;SDS011;18207;32.078;34.818;2024-02-15T13:26:00;0.57;;;0.45;;
23617;SDS011;18207;32.078;34.818;2024-02-15T13:28:31;0.52;;;0.40;;
23617;SDS011;18207;32.078;34.818;2024-02-15T13:31:01;0.85;;;0.50;;
23617;SDS011;18207;32.078;34.818;2024-02-15T13:33:31;0.55;;;0.30;;
23617;SDS011;18207;32.078;34.818;2024-02-15T13:36:01;0.60;;;0.40;;
23617;SDS011;18207;32.078;34.818;2024-02-15T13:38:33;0.30;;;0.30;;
23617;SDS011;18207;32.078;34.818;2024-02-15T13:41:05;0.88;;;0.32;;
23617;SDS011;18207;32.078;34.818;2024-02-15T13:43:38;0.40;;;0.40;;
23617;SDS011;18207;32.078;34.818;2024-02-15T13:46:11;0.73;;;0.30;;
23617;SDS011;18207;32.078;34.818;2024-02-15T13:48:40;0.55;;;0.30;;
23617;SDS011;18207;32.078;34.818;2024-02-15T13:51:13;0.55;;;0.35;;
23617;SDS011;18207;32.078;34.818;2024-02-15T13:53:43;0.70;;;0.57;;
23617;SDS011;18207;32.078;34.818;2024-02-15T13:56:16;0.57;;;0.30;;
23617;SDS011;18207;32.078;34.818;2024-02-15T13:58:46;0.77;;;0.40;;
23617;SDS011;18207;32.078;34.818;2024-02-15T14:01:15;0.70;;;0.60;;
23617;SDS011;18207;32.078;34.818;2024-02-15T14:03:45;0.85;;;0.32;;
23617;SDS011;18207;32.078;34.818;2024-02-15T14:06:16;0.90;;;0.30;;
23617;SDS011;18207;32.078;34.818;2024-02-15T14:08:47;0.95;;;0.40;;
23617;SDS011;18207;32.078;34.818;2024-02-15T14:11:19;0.65;;;0.65;;
23617;SDS011;18207;32.078;34.818;2024-02-15T14:13:49;0.90;;;0.50;;
23617;SDS011;18207;32.078;34.818;2024-02-15T14:16:25;0.85;;;0.45;;
23617;SDS011;18207;32.078;34.818;2024-02-15T14:19:00;0.65;;;0.30;;
23617;SDS011;18207;32.078;34.818;2024-02-15T14:21:31;0.40;;;0.32;;
23617;SDS011;18207;32.078;34.818;2024-02-15T14:24:06;0.82;;;0.47;;
23617;SDS011;18207;32.078;34.818;2024-02-15T14:26:38;1.23;;;0.40;;
23617;SDS011;18207;32.078;34.818;2024-02-15T14:29:09;2.10;;;0.40;;
23617;SDS011;18207;32.078;34.818;2024-02-15T14:31:44;1.35;;;0.50;;
23617;SDS011;18207;32.078;34.818;2024-02-15T14:34:33;0.68;;;0.38;;
23617;SDS011;18207;32.078;34.818;2024-02-15T14:37:04;0.22;;;0.20;;
23617;SDS011;18207;32.078;34.818;2024-02-15T14:39:34;1.08;;;0.60;;
23617;SDS011;18207;32.078;34.818;2024-02-15T14:42:06;0.80;;;0.43;;
23617;SDS011;18207;32.078;34.818;2024-02-15T14:44:44;1.10;;;0.47;;
23617;SDS011;18207;32.078;34.818;2024-02-15T14:47:14;0.77;;;0.35;;
23617;SDS011;18207;32.078;34.818;2024-02-15T14:49:45;0.80;;;0.30;;
23617;SDS011;18207;32.078;34.818;2024-02-15T14:52:14;0.73;;;0.50;;
23617;SDS011;18207;32.078;34.818;2024-02-15T14:54:45;0.40;;;0.40;;
23617;SDS011;18207;32.078;34.818;2024-02-15T14:57:16;0.75;;;0.40;;
23617;SDS011;18207;32.078;34.818;2024-02-15T14:59:49;1.45;;;0.70;;
23617;SDS011;18207;32.078;34.818;2024-02-15T15:02:18;0.80;;;0.47;;
23617;SDS011;18207;32.078;34.818;2024-02-15T15:04:51;0.43;;;0.30;;
23617;SDS011;18207;32.078;34.818;2024-02-15T15:07:46;0.93;;;0.40;;
23617;SDS011;18207;32.078;34.818;2024-02-15T15:10:33;1.08;;;0.32;;
23617;SDS011;18207;32.078;34.818;2024-02-15T15:13:22;0.40;;;0.32;;
23617;SDS011;18207;32.078;34.818;2024-02-15T15:15:52;0.65;;;0.40;;